Terminal Aerodrome Forecast
Issued by NWS

Home | Current Version | Previous Version | Graphics & Text | Print | Product List | Glossary Off
Versions: 1 2 3 4 5 6 7 8 9 10 11 12 13

000
FTUS45 KGGW 302324
TAFOLF
TAF
KOLF 302324Z 3100/3124 10010KT P6SM SCT150
     FM311800 15013KT P6SM FEW170=

USA.gov is the U.S. government's official web portal to all federal, state and local government web resources and services.